Al Rawdah — V7VM8 — position and weather

sailwx.info

Track history (hours):
 
Tides and Currents Weather Stations Pressure Air Temp Water Temp Dewpoint Dewpoint Depression Visibility Wind Speed Wind Dir Waves Ship Positions

Al Rawdah

Last reported at 2017-Feb-24 03:34 UTC. Time now 2017-Feb-24 03:48 UTC.
Position N 43°50' E 009°51'.

Length 307 m; draft 12.7 m.

Type: Ship (hazmat cat A). MMSI: 538004160.

Date/timePositionNaut miles runAvg speedWind from/ knotsBaromVisibWave heightAir tempDewpointWater temp
2017-Feb-24 03:34N 43°50' E 009°51'1515.1
2017-Feb-24 02:34N 43°36' E 009°41'1515.4
2017-Feb-24 01:33N 43°21' E 009°39'1616.1
2017-Feb-24 00:34N 43°05' E 009°38'44916.6
2017-Feb-22 21:33N 36°16' E 013°38'1817.8
2017-Feb-22 20:33N 36°03' E 013°53'1817.8
2017-Feb-22 19:33N 35°51' E 014°09'1717.3
2017-Feb-22 18:33N 35°43' E 014°28'8 0.8
2017-Feb-22 09:32N 35°49' E 014°33'0 0.0
2017-Feb-22 08:29N 35°49' E 014°33'0 0.1
2017-Feb-22 06:31N 35°49' E 014°33'8 8.7
2017-Feb-22 05:33N 35°46' E 014°42'  
Track history (hours):
 
Tides and Currents Weather Stations Pressure Air Temp Water Temp Dewpoint Dewpoint Depression Visibility Wind Speed Wind Dir Waves Ship Positions

Al Rawdah

Last reported at 2017-Feb-24 03:34 UTC. Time now 2017-Feb-24 03:48 UTC.
Position N 43°50' E 009°51'.

Length 307 m; draft 12.7 m.

Type: Ship (hazmat cat A). MMSI: 538004160.

Date/timePositionNaut miles runAvg speedWind from/ knotsBaromVisibWave heightAir tempDewpointWater temp
2017-Feb-24 03:34N 43°50' E 009°51'1515.1
2017-Feb-24 02:34N 43°36' E 009°41'1515.4
2017-Feb-24 01:33N 43°21' E 009°39'1616.1
2017-Feb-24 00:34N 43°05' E 009°38'44916.6
2017-Feb-22 21:33N 36°16' E 013°38'1817.8
2017-Feb-22 20:33N 36°03' E 013°53'1817.8
2017-Feb-22 19:33N 35°51' E 014°09'1717.3
2017-Feb-22 18:33N 35°43' E 014°28'8 0.8
2017-Feb-22 09:32N 35°49' E 014°33'0 0.0
2017-Feb-22 08:29N 35°49' E 014°33'0 0.1
2017-Feb-22 06:31N 35°49' E 014°33'8 8.7
2017-Feb-22 05:33N 35°46' E 014°42'  

Dump ship's entire track history